createdAt,value
2018-08-04T00:01:49.851Z,53.20
2018-08-04T00:04:17.680Z,53.80
2018-08-04T00:06:45.505Z,54.10
2018-08-04T00:11:41.768Z,54.60
2018-08-04T00:14:09.816Z,55.10
2018-08-04T00:16:37.764Z,54.90
2018-08-04T00:19:06.282Z,55.10
2018-08-04T00:21:34.256Z,54.80
2018-08-04T00:26:31.257Z,56.20
2018-08-04T00:29:00.268Z,56.30
2018-08-04T00:31:29.575Z,56.50
2018-08-04T00:33:57.464Z,56.20
2018-08-04T00:36:25.646Z,54.80
2018-08-04T00:38:53.987Z,55.10
2018-08-04T00:43:50.211Z,56.90
2018-08-04T00:46:18.220Z,58.10
2018-08-04T00:48:46.321Z,57.80
2018-08-04T00:51:14.229Z,55.40
2018-08-04T00:53:42.241Z,56.90
2018-08-04T00:56:10.455Z,57.00
2018-08-04T00:58:38.574Z,57.10
2018-08-04T01:01:06.963Z,56.30
2018-08-04T01:03:35.108Z,59.00
2018-08-04T01:06:02.988Z,59.90
2018-08-04T01:08:30.787Z,56.40
2018-08-04T01:10:58.700Z,56.70
2018-08-04T01:13:26.464Z,58.80
2018-08-04T01:15:54.267Z,57.50
2018-08-04T01:18:22.120Z,60.90
2018-08-04T01:20:49.895Z,59.40
2018-08-04T01:23:17.854Z,61.00
2018-08-04T01:25:45.821Z,61.20
2018-08-04T01:28:13.622Z,61.30
2018-08-04T01:30:41.455Z,61.50
2018-08-04T01:33:09.243Z,59.20
2018-08-04T01:35:37.960Z,61.40
2018-08-04T01:38:05.752Z,62.40
2018-08-04T01:40:33.540Z,61.30
2018-08-04T01:43:01.352Z,60.90
2018-08-04T01:45:29.143Z,59.90
2018-08-04T01:47:57.016Z,60.60
2018-08-04T01:50:24.891Z,62.50
2018-08-04T01:52:52.791Z,60.80
2018-08-04T01:55:20.596Z,61.90
2018-08-04T01:57:48.350Z,61.50
2018-08-04T02:00:16.195Z,60.70
2018-08-04T02:02:44.008Z,61.30
2018-08-04T02:05:11.748Z,62.50
2018-08-04T02:07:39.523Z,62.90
2018-08-04T02:10:07.335Z,62.90
2018-08-04T02:12:35.200Z,63.10
2018-08-04T02:15:03.039Z,61.20
2018-08-04T02:22:26.399Z,63.50
2018-08-04T02:24:54.160Z,63.20
2018-08-04T02:27:22.072Z,62.70
2018-08-04T02:29:50.181Z,63.30
2018-08-04T02:32:17.943Z,63.20
2018-08-04T02:37:13.555Z,63.60
2018-08-04T02:39:41.429Z,63.70
2018-08-04T02:42:09.279Z,63.20
2018-08-04T02:44:37.123Z,63.30
2018-08-04T02:47:04.963Z,63.30
2018-08-04T02:49:32.764Z,63.30
2018-08-04T02:52:00.578Z,62.90
2018-08-04T02:54:28.360Z,62.40
2018-08-04T02:59:23.984Z,61.70
2018-08-04T03:01:51.804Z,62.60
2018-08-04T03:04:19.656Z,63.30
2018-08-04T03:06:47.499Z,63.60
2018-08-04T03:09:15.326Z,63.60
2018-08-04T03:11:43.168Z,64.10
2018-08-04T03:16:38.847Z,63.40
2018-08-04T03:19:06.802Z,65.50
2018-08-04T03:21:34.648Z,66.30
2018-08-04T03:24:02.469Z,66.80
2018-08-04T03:26:30.219Z,67.40
2018-08-04T03:28:58.100Z,67.50
2018-08-04T03:31:25.892Z,66.30
2018-08-04T03:33:53.659Z,66.50
2018-08-04T03:36:21.432Z,66.60
2018-08-04T03:38:49.215Z,67.90
2018-08-04T03:41:17.110Z,69.50
2018-08-04T03:43:44.937Z,69.90
2018-08-04T03:46:12.836Z,68.70
2018-08-04T03:48:40.584Z,68.40
2018-08-04T03:51:08.396Z,68.30
2018-08-04T03:53:36.256Z,68.80
2018-08-04T03:56:04.126Z,70.00
2018-08-04T03:58:31.935Z,69.70
2018-08-04T04:00:59.877Z,70.10
2018-08-04T04:03:27.739Z,69.80
2018-08-04T04:05:55.493Z,70.80
2018-08-04T04:08:23.316Z,71.30
2018-08-04T04:10:51.155Z,71.30
2018-08-04T04:13:18.986Z,71.50
2018-08-04T04:15:46.776Z,72.30
2018-08-04T04:18:14.635Z,72.60
2018-08-04T04:20:42.419Z,71.60
2018-08-04T04:23:10.184Z,73.30
2018-08-04T04:25:37.971Z,72.50
2018-08-04T04:28:05.799Z,72.50
2018-08-04T04:30:33.627Z,72.60
2018-08-04T04:33:01.389Z,71.70
2018-08-04T04:35:29.212Z,71.40
2018-08-04T04:37:57.012Z,70.50
2018-08-04T04:40:24.841Z,71.00
2018-08-04T04:42:52.639Z,70.60
2018-08-04T04:45:20.486Z,70.70
2018-08-04T04:47:48.310Z,70.60
2018-08-04T04:50:16.229Z,69.70
2018-08-04T04:52:44.107Z,68.40
2018-08-04T04:55:11.965Z,68.80
2018-08-04T04:57:39.758Z,68.10
2018-08-04T05:00:07.639Z,67.60
2018-08-04T05:02:35.360Z,66.70
2018-08-04T05:05:03.577Z,65.10
2018-08-04T05:07:31.404Z,66.30
2018-08-04T05:09:59.170Z,66.80
2018-08-04T05:12:27.092Z,66.00
2018-08-04T05:14:54.895Z,66.10
2018-08-04T05:17:22.675Z,65.00
2018-08-04T05:19:50.455Z,65.90
2018-08-04T05:22:18.230Z,65.40
2018-08-04T05:24:46.025Z,66.00
2018-08-04T05:27:13.929Z,67.10
2018-08-04T05:29:41.754Z,65.40
2018-08-04T05:32:09.574Z,65.90
2018-08-04T05:34:37.435Z,65.10
2018-08-04T05:37:05.759Z,64.10
2018-08-04T05:39:33.587Z,64.10
2018-08-04T05:42:01.312Z,63.70
2018-08-04T05:46:57.496Z,60.50
2018-08-04T05:49:25.377Z,58.60
2018-08-04T05:51:53.211Z,57.10
2018-08-04T05:54:21.064Z,55.50
2018-08-04T05:56:48.812Z,55.30
2018-08-04T05:59:16.632Z,54.90
2018-08-04T06:01:44.485Z,54.70
2018-08-04T06:04:12.283Z,54.60
2018-08-04T06:06:40.073Z,55.20
2018-08-04T06:09:09.201Z,53.60
2018-08-04T06:11:37.078Z,53.40
2018-08-04T06:14:05.048Z,53.30
2018-08-04T06:16:32.976Z,53.10
2018-08-04T06:19:01.476Z,53.50
2018-08-04T06:21:29.467Z,54.10
2018-08-04T06:23:57.351Z,53.80
2018-08-04T06:26:25.147Z,53.80
2018-08-04T06:28:53.055Z,54.10
2018-08-04T06:31:20.896Z,54.80
2018-08-04T06:33:48.751Z,54.60
2018-08-04T06:36:16.485Z,54.70
2018-08-04T06:38:44.319Z,54.30
2018-08-04T06:41:12.111Z,54.50
2018-08-04T06:43:39.993Z,54.30
2018-08-04T06:46:07.851Z,53.20
2018-08-04T06:48:35.911Z,53.70
2018-08-04T06:51:03.755Z,54.50
2018-08-04T06:53:31.623Z,54.20
2018-08-04T06:55:59.533Z,54.60
2018-08-04T06:58:27.427Z,54.00
2018-08-04T07:00:55.241Z,53.50
2018-08-04T07:03:23.052Z,53.40
2018-08-04T07:05:50.818Z,53.80
2018-08-04T07:08:18.647Z,53.80
2018-08-04T07:10:46.407Z,53.50
2018-08-04T07:13:14.259Z,53.90
2018-08-04T07:15:42.106Z,52.90
2018-08-04T07:18:10.065Z,53.40
2018-08-04T07:20:37.947Z,53.80
2018-08-04T07:25:33.553Z,53.60
2018-08-04T07:28:01.337Z,53.30
2018-08-04T07:30:29.183Z,52.40
2018-08-04T07:33:02.263Z,52.40
2018-08-04T07:35:30.983Z,52.40
2018-08-04T07:37:58.751Z,52.40
2018-08-04T07:40:26.631Z,51.70
2018-08-04T07:42:54.449Z,51.10
2018-08-04T07:45:22.249Z,50.90
2018-08-04T07:47:50.169Z,51.50
2018-08-04T07:50:18.518Z,51.00
2018-08-04T07:52:46.300Z,51.40
2018-08-04T07:57:41.867Z,51.20
2018-08-04T08:00:09.919Z,50.70
2018-08-04T08:02:37.777Z,50.50
2018-08-04T08:05:05.962Z,50.20
2018-08-04T08:07:33.833Z,50.30
2018-08-04T08:10:01.681Z,50.40
2018-08-04T08:12:30.085Z,50.00
2018-08-04T08:14:58.359Z,49.90
2018-08-04T08:17:26.140Z,50.50
2018-08-04T08:19:54.077Z,49.30
2018-08-04T08:22:35.720Z,49.30
2018-08-04T08:25:04.051Z,49.30
2018-08-04T08:27:32.040Z,49.20
2018-08-04T08:29:59.919Z,49.50
2018-08-04T08:32:27.742Z,49.20
2018-08-04T08:34:55.587Z,49.10
2018-08-04T08:42:18.945Z,47.90
2018-08-04T08:44:46.782Z,48.00
2018-08-04T08:47:14.838Z,47.10
2018-08-04T08:49:42.590Z,45.90
2018-08-04T08:52:10.435Z,45.00
2018-08-04T08:54:38.345Z,44.70
2018-08-04T08:57:06.140Z,44.20
2018-08-04T08:59:34.049Z,44.70
2018-08-04T09:02:01.857Z,43.80
2018-08-04T09:06:57.488Z,44.30
2018-08-04T09:09:25.255Z,44.40
2018-08-04T09:11:53.080Z,43.80
2018-08-04T09:14:20.885Z,44.00
2018-08-04T09:16:48.784Z,43.10
2018-08-04T09:21:44.491Z,44.20
2018-08-04T09:24:12.340Z,43.60
2018-08-04T09:26:40.383Z,43.80
2018-08-04T09:31:36.328Z,43.70
2018-08-04T09:34:04.176Z,43.00
2018-08-04T09:39:00.469Z,42.00
2018-08-04T09:41:28.244Z,42.50
2018-08-04T09:46:23.940Z,43.00
2018-08-04T09:48:51.846Z,42.00
2018-08-04T09:51:19.647Z,42.40
2018-08-04T09:53:47.492Z,42.20
2018-08-04T09:56:15.323Z,40.90
2018-08-04T09:58:43.080Z,41.00
2018-08-04T10:01:16.967Z,41.40
2018-08-04T10:03:44.933Z,40.70
2018-08-04T10:06:12.808Z,40.60
2018-08-04T10:08:40.623Z,38.90
2018-08-04T10:11:08.553Z,39.20
2018-08-04T10:13:36.428Z,38.00
2018-08-04T10:16:04.995Z,38.20
2018-08-04T10:18:32.855Z,37.40
2018-08-04T10:23:28.468Z,35.10
2018-08-04T10:25:56.281Z,35.80
2018-08-04T10:28:23.991Z,36.70
2018-08-04T10:30:51.759Z,36.40
2018-08-04T10:33:19.536Z,35.20
2018-08-04T10:35:47.409Z,36.60
2018-08-04T10:38:15.200Z,36.40
2018-08-04T10:40:43.011Z,36.20
2018-08-04T10:43:10.801Z,36.00
2018-08-04T10:45:38.623Z,34.90
2018-08-04T10:48:06.423Z,34.60
2018-08-04T10:50:34.248Z,33.60
2018-08-04T10:53:02.060Z,33.50
2018-08-04T10:55:29.895Z,33.80
2018-08-04T10:57:57.803Z,33.40
2018-08-04T11:00:25.580Z,32.90
2018-08-04T11:02:53.375Z,33.30
2018-08-04T11:05:21.186Z,32.40
2018-08-04T11:10:16.751Z,31.40
2018-08-04T11:12:44.563Z,31.90
2018-08-04T11:15:12.356Z,31.90
2018-08-04T11:17:40.229Z,32.60
2018-08-04T11:20:08.083Z,32.50
2018-08-04T11:22:35.914Z,33.50
2018-08-04T11:25:04.035Z,32.70
2018-08-04T11:27:31.888Z,31.70
2018-08-04T11:29:59.702Z,30.60
2018-08-04T11:32:27.558Z,30.20
2018-08-04T11:34:55.379Z,29.10
2018-08-04T11:37:23.190Z,28.60
2018-08-04T11:39:51.043Z,27.90
2018-08-04T11:42:18.820Z,28.40
2018-08-04T11:44:46.603Z,28.00
2018-08-04T11:47:14.439Z,26.10
2018-08-04T11:49:42.259Z,26.50
2018-08-04T11:52:10.128Z,26.40
2018-08-04T11:54:37.859Z,27.20
2018-08-04T11:57:05.759Z,27.70
2018-08-04T11:59:33.638Z,27.80
2018-08-04T12:02:01.558Z,27.50
2018-08-04T12:04:29.336Z,28.60
2018-08-04T12:06:57.179Z,29.00
2018-08-04T12:11:52.725Z,29.90
2018-08-04T12:14:20.541Z,30.50
2018-08-04T12:16:48.419Z,30.60
2018-08-04T12:19:16.198Z,31.60
2018-08-04T12:21:43.987Z,32.10
2018-08-04T12:24:11.839Z,32.10
2018-08-04T12:26:39.615Z,32.70
2018-08-04T12:29:07.396Z,32.40
2018-08-04T12:34:02.931Z,32.20
2018-08-04T12:36:30.771Z,32.40
2018-08-04T12:38:58.603Z,32.10
2018-08-04T12:41:26.507Z,32.80
2018-08-04T12:43:54.319Z,33.40
2018-08-04T12:46:22.171Z,33.80
2018-08-04T12:48:49.950Z,33.40
2018-08-04T12:51:17.719Z,33.90
2018-08-04T12:53:45.531Z,33.50
2018-08-04T12:56:13.347Z,32.40
2018-08-04T12:58:41.195Z,30.70
2018-08-04T13:01:09.047Z,30.10
2018-08-04T13:03:36.914Z,30.20
2018-08-04T13:06:04.915Z,28.70
2018-08-04T13:08:32.715Z,28.80
2018-08-04T13:11:00.451Z,28.80
2018-08-04T13:13:28.236Z,27.70
2018-08-04T13:15:56.131Z,26.90
2018-08-04T13:18:23.974Z,27.00
2018-08-04T13:20:52.027Z,27.10
2018-08-04T13:23:19.770Z,26.50
2018-08-04T13:28:15.411Z,27.50
2018-08-04T13:30:43.267Z,27.30
2018-08-04T13:35:38.807Z,28.40
2018-08-04T13:38:06.665Z,29.30
2018-08-04T13:40:34.519Z,31.90
2018-08-04T13:43:02.407Z,40.20
2018-08-04T13:45:30.231Z,43.60
2018-08-04T13:47:58.057Z,48.90
2018-08-04T13:50:25.900Z,53.80
2018-08-04T13:52:53.739Z,51.50
2018-08-04T13:55:22.121Z,58.70
2018-08-04T13:57:49.967Z,55.50
2018-08-04T14:02:45.544Z,60.30
2018-08-04T14:05:13.392Z,60.90
2018-08-04T14:07:41.156Z,61.00
2018-08-04T14:12:49.033Z,55.50
2018-08-04T14:15:24.487Z,56.30
2018-08-04T14:17:52.385Z,54.30
2018-08-04T14:20:26.369Z,65.40
2018-08-04T14:22:54.236Z,81.10
2018-08-04T14:25:22.088Z,80.40
2018-08-04T14:27:51.746Z,81.20
2018-08-04T14:30:20.256Z,78.90
2018-08-04T14:32:53.026Z,77.60
2018-08-04T14:37:56.848Z,66.90
2018-08-04T14:40:24.599Z,63.10
2018-08-04T14:42:52.396Z,62.40
2018-08-04T14:45:20.476Z,69.00
2018-08-04T14:47:48.778Z,64.00
2018-08-04T14:50:16.683Z,61.20
2018-08-04T14:52:44.462Z,58.10
2018-08-04T14:55:12.387Z,53.80
2018-08-04T14:57:40.154Z,53.30
2018-08-04T15:00:08.099Z,54.00
2018-08-04T15:05:05.487Z,50.80
2018-08-04T15:07:33.268Z,50.80
2018-08-04T15:10:01.070Z,51.00
2018-08-04T15:12:28.936Z,50.10
2018-08-04T15:14:56.687Z,49.90
2018-08-04T15:17:25.271Z,48.80
2018-08-04T15:19:53.079Z,49.60
2018-08-04T15:22:20.996Z,48.20
2018-08-04T15:24:48.948Z,47.10
2018-08-04T15:27:19.951Z,46.10
2018-08-04T15:29:47.747Z,46.60
2018-08-04T15:32:15.756Z,45.00
2018-08-04T15:34:43.591Z,44.30
2018-08-04T15:37:11.315Z,43.90
2018-08-04T15:39:39.166Z,43.40
2018-08-04T15:42:07.100Z,44.80
2018-08-04T15:44:35.187Z,45.60
2018-08-04T15:47:03.474Z,44.10
2018-08-04T15:49:31.328Z,42.90
2018-08-04T15:51:59.291Z,43.10
2018-08-04T15:54:27.104Z,42.00
2018-08-04T15:56:54.915Z,43.00
2018-08-04T15:59:23.152Z,41.60
2018-08-04T16:01:51.011Z,41.10
2018-08-04T16:04:18.840Z,41.90
2018-08-04T16:06:46.599Z,43.70
2018-08-04T16:09:14.380Z,40.90
2018-08-04T16:11:42.216Z,42.60
2018-08-04T16:14:10.347Z,42.30
2018-08-04T16:16:39.020Z,44.20
2018-08-04T16:19:07.287Z,41.00
2018-08-04T16:21:35.135Z,43.30
2018-08-04T16:24:03.000Z,42.50
2018-08-04T16:29:01.324Z,40.40
2018-08-04T16:31:29.141Z,43.80
2018-08-04T16:33:57.235Z,44.20
2018-08-04T16:36:28.617Z,40.90
2018-08-04T16:38:56.417Z,42.10
2018-08-04T16:41:24.277Z,40.00
2018-08-04T16:43:52.052Z,41.30
2018-08-04T16:46:19.911Z,41.30
2018-08-04T16:48:47.715Z,40.30
2018-08-04T16:51:15.486Z,40.20
2018-08-04T16:53:43.245Z,40.40
2018-08-04T16:56:11.103Z,40.40
2018-08-04T16:58:39.015Z,40.50
2018-08-04T17:01:06.898Z,40.50
2018-08-04T17:03:34.667Z,40.50
2018-08-04T17:06:02.531Z,41.30
2018-08-04T17:08:30.292Z,41.10
2018-08-04T17:10:58.115Z,42.00
2018-08-04T17:13:25.923Z,41.40
2018-08-04T17:15:53.780Z,41.30
2018-08-04T17:18:21.593Z,42.60
2018-08-04T17:20:49.399Z,42.00
2018-08-04T17:23:17.175Z,42.80
2018-08-04T17:25:45.006Z,42.50
2018-08-04T17:30:40.664Z,44.40
2018-08-04T17:33:08.511Z,43.30
2018-08-04T17:35:36.300Z,42.10
2018-08-04T17:38:05.148Z,42.50
2018-08-04T17:40:32.943Z,42.90
2018-08-04T17:43:00.966Z,43.30
2018-08-04T17:45:28.775Z,43.70
2018-08-04T17:47:56.543Z,43.70
2018-08-04T17:50:24.389Z,43.70
2018-08-04T17:52:52.175Z,43.60
2018-08-04T17:55:19.940Z,43.30
2018-08-04T17:57:47.783Z,43.50
2018-08-04T18:00:15.655Z,44.00
2018-08-04T18:02:43.493Z,43.80
2018-08-04T18:05:11.303Z,43.80
2018-08-04T18:07:39.274Z,44.00
2018-08-04T18:10:07.223Z,44.40
2018-08-04T18:12:34.977Z,45.00
2018-08-04T18:15:03.610Z,45.70
2018-08-04T18:17:31.399Z,45.30
2018-08-04T18:19:59.223Z,45.70
2018-08-04T18:22:27.160Z,46.20
2018-08-04T18:24:54.980Z,46.10
2018-08-04T18:27:22.768Z,47.50
2018-08-04T18:29:50.744Z,46.70
2018-08-04T18:32:18.423Z,46.80
2018-08-04T18:34:46.211Z,46.50
2018-08-04T18:37:14.037Z,47.20
2018-08-04T18:39:41.879Z,47.50
2018-08-04T18:42:09.730Z,47.80
2018-08-04T18:44:37.666Z,48.00
2018-08-04T18:47:05.416Z,48.00
2018-08-04T18:49:33.244Z,48.20
2018-08-04T18:52:01.161Z,47.70
2018-08-04T18:54:29.317Z,48.00
2018-08-04T18:56:57.164Z,47.60
2018-08-04T18:59:24.947Z,47.60
2018-08-04T19:01:52.800Z,47.10
2018-08-04T19:04:21.511Z,47.30
2018-08-04T19:06:49.311Z,47.20
2018-08-04T19:09:17.160Z,47.60
2018-08-04T19:11:44.935Z,47.90
2018-08-04T19:16:40.645Z,48.80
2018-08-04T19:19:08.399Z,48.60
2018-08-04T19:21:36.198Z,49.10
2018-08-04T19:24:04.040Z,49.20
2018-08-04T19:26:34.117Z,49.80
2018-08-04T19:29:01.933Z,50.20
2018-08-04T19:31:29.878Z,50.10
2018-08-04T19:33:57.788Z,49.80
2018-08-04T19:36:25.740Z,49.70
2018-08-04T19:38:55.118Z,50.00
2018-08-04T19:41:24.232Z,50.30
2018-08-04T19:43:52.625Z,50.30
2018-08-04T19:46:20.501Z,50.30
2018-08-04T19:48:49.367Z,50.50
2018-08-04T19:51:17.256Z,49.80
2018-08-04T19:53:46.771Z,49.50
2018-08-04T19:56:14.587Z,49.10
2018-08-04T19:58:43.199Z,49.30
2018-08-04T20:03:40.280Z,49.00
2018-08-04T20:06:09.033Z,49.10
2018-08-04T20:08:37.565Z,48.90
2018-08-04T20:11:05.363Z,48.70
2018-08-04T20:13:33.173Z,49.30
2018-08-04T20:16:00.990Z,48.70
2018-08-04T20:18:29.004Z,48.90
2018-08-04T20:20:56.923Z,48.60
2018-08-04T20:23:24.811Z,48.50
2018-08-04T20:25:52.892Z,48.30
2018-08-04T20:28:20.935Z,48.10
2018-08-04T20:33:17.046Z,47.80
2018-08-04T20:35:45.300Z,47.50
2018-08-04T20:38:13.123Z,47.90
2018-08-04T20:40:40.920Z,47.90
2018-08-04T20:43:08.716Z,47.80
2018-08-04T20:45:36.498Z,47.90
2018-08-04T20:48:05.770Z,48.00
2018-08-04T20:50:33.583Z,48.50
2018-08-04T20:53:01.629Z,48.40
2018-08-04T20:55:29.603Z,48.40
2018-08-04T20:57:57.442Z,49.00
2018-08-04T21:00:25.267Z,48.90
2018-08-04T21:02:53.111Z,49.10
2018-08-04T21:05:21.163Z,49.20
2018-08-04T21:07:49.156Z,49.90
2018-08-04T21:10:17.008Z,49.40
2018-08-04T21:12:44.854Z,49.40
2018-08-04T21:15:12.687Z,49.70
2018-08-04T21:17:40.468Z,49.80
2018-08-04T21:20:08.295Z,50.30
2018-08-04T21:25:05.164Z,50.80
2018-08-04T21:27:32.972Z,51.30
2018-08-04T21:30:00.915Z,51.50
2018-08-04T21:32:28.714Z,51.70
2018-08-04T21:34:56.692Z,52.10
2018-08-04T21:37:24.500Z,52.00
2018-08-04T21:39:52.343Z,53.00
2018-08-04T21:42:20.141Z,52.90
2018-08-04T21:44:47.984Z,53.10
2018-08-04T21:47:17.117Z,53.20
2018-08-04T21:49:44.940Z,53.20
2018-08-04T21:52:12.795Z,53.30
2018-08-04T21:54:40.635Z,53.90
2018-08-04T21:57:08.453Z,54.00
2018-08-04T21:59:36.311Z,54.70
2018-08-04T22:02:04.210Z,54.90
2018-08-04T22:04:32.054Z,55.50
2018-08-04T22:08:15.111Z,55.60
2018-08-04T22:10:42.952Z,55.40
2018-08-04T22:13:10.812Z,55.70
2018-08-04T22:15:38.696Z,55.70
2018-08-04T22:18:06.588Z,56.20
2018-08-04T22:20:34.347Z,56.00
2018-08-04T22:23:02.146Z,56.50
2018-08-04T22:25:30.339Z,56.70
2018-08-04T22:27:58.590Z,57.00
2018-08-04T22:30:26.607Z,56.90
2018-08-04T22:32:54.416Z,56.80
2018-08-04T22:35:22.748Z,57.00
2018-08-04T22:37:51.152Z,57.40
2018-08-04T22:40:19.902Z,58.10
2018-08-04T22:42:47.794Z,58.30
2018-08-04T22:48:34.583Z,58.80
2018-08-04T22:51:02.541Z,58.70
2018-08-04T22:53:30.636Z,57.50
2018-08-04T22:55:58.439Z,59.00
2018-08-04T22:58:26.238Z,59.80
2018-08-04T23:00:54.055Z,59.70
2018-08-04T23:03:21.835Z,59.20
2018-08-04T23:05:49.589Z,58.80
2018-08-04T23:08:17.388Z,60.20
2018-08-04T23:10:45.244Z,59.40
2018-08-04T23:13:13.621Z,59.50
2018-08-04T23:15:41.500Z,60.40
2018-08-04T23:18:09.680Z,59.80
2018-08-04T23:20:37.634Z,60.10
2018-08-04T23:23:06.263Z,59.40
2018-08-04T23:25:34.120Z,60.50
2018-08-04T23:28:01.888Z,59.80
2018-08-04T23:30:29.673Z,61.20
2018-08-04T23:32:57.480Z,60.20
2018-08-04T23:35:26.083Z,61.60
2018-08-04T23:37:54.012Z,61.60
2018-08-04T23:40:22.266Z,61.90
2018-08-04T23:42:50.027Z,60.60
2018-08-04T23:45:17.900Z,61.20
2018-08-04T23:50:13.622Z,60.80
2018-08-04T23:52:41.552Z,61.70
2018-08-04T23:55:09.336Z,62.00
2018-08-04T23:57:37.191Z,61.60
